createdAt,value
2023-02-11T00:01:37.488Z,33.50
2023-02-11T00:04:05.454Z,32.40
2023-02-11T00:06:34.458Z,30.67
2023-02-11T00:09:01.817Z,33.40
2023-02-11T00:11:30.477Z,33.23
2023-02-11T00:14:02.442Z,31.63
2023-02-11T00:16:30.080Z,30.50
2023-02-11T00:18:58.758Z,30.83
2023-02-11T00:21:26.709Z,32.67
2023-02-11T00:23:54.929Z,27.27
2023-02-11T00:26:24.105Z,31.80
2023-02-11T00:28:52.259Z,33.90
2023-02-11T00:31:21.355Z,29.47
2023-02-11T00:33:48.239Z,33.93
2023-02-11T00:36:21.506Z,24.13
2023-02-11T00:38:49.965Z,30.23
2023-02-11T00:41:17.422Z,29.00
2023-02-11T00:43:44.465Z,30.83
2023-02-11T00:46:11.545Z,25.73
2023-02-11T00:48:38.386Z,22.13
2023-02-11T00:51:05.862Z,26.90
2023-02-11T00:53:33.134Z,27.57
2023-02-11T00:56:01.045Z,30.97
2023-02-11T00:58:28.488Z,25.40
2023-02-11T01:00:55.944Z,26.63
2023-02-11T01:03:22.816Z,22.67
2023-02-11T01:05:49.802Z,26.27
2023-02-11T01:08:16.662Z,25.73
2023-02-11T01:10:43.997Z,24.90
2023-02-11T01:13:11.071Z,25.50
2023-02-11T01:15:37.941Z,29.80
2023-02-11T01:18:05.991Z,26.63
2023-02-11T01:20:33.010Z,32.07
2023-02-11T01:22:59.691Z,27.93
2023-02-11T01:25:26.344Z,27.20
2023-02-11T01:27:52.970Z,24.60
2023-02-11T01:30:19.652Z,30.67
2023-02-11T01:32:46.289Z,27.80
2023-02-11T01:35:12.972Z,20.23
2023-02-11T01:37:39.742Z,27.77
2023-02-11T01:40:15.218Z,24.83
2023-02-11T01:42:42.187Z,34.63
2023-02-11T01:45:49.368Z,22.77
2023-02-11T01:48:24.619Z,26.00
2023-02-11T01:50:54.682Z,38.90
2023-02-11T01:53:41.104Z,28.70
2023-02-11T01:56:27.628Z,21.93
2023-02-11T01:58:58.363Z,27.20
2023-02-11T02:01:27.725Z,27.70
2023-02-11T02:03:59.768Z,29.30
2023-02-11T02:06:37.893Z,34.37
2023-02-11T02:09:13.405Z,31.70
2023-02-11T02:11:40.088Z,20.20
2023-02-11T02:14:06.857Z,32.97
2023-02-11T02:16:37.679Z,28.60
2023-02-11T02:19:37.556Z,33.37
2023-02-11T02:22:16.116Z,28.00
2023-02-11T02:25:12.999Z,29.80
2023-02-11T02:27:52.020Z,33.27
2023-02-11T02:30:42.075Z,29.57
2023-02-11T02:33:38.562Z,24.43
2023-02-11T02:36:31.975Z,29.43
2023-02-11T02:39:07.941Z,29.30
2023-02-11T02:41:36.582Z,32.53
2023-02-11T02:44:03.635Z,27.60
2023-02-11T02:46:33.843Z,27.10
2023-02-11T02:49:00.911Z,28.17
2023-02-11T02:52:01.646Z,24.57
2023-02-11T02:54:28.263Z,29.73
2023-02-11T02:57:08.541Z,34.57
2023-02-11T02:59:59.091Z,29.00
2023-02-11T03:03:12.754Z,31.67
2023-02-11T03:05:46.534Z,41.03
2023-02-11T03:08:24.385Z,30.93
2023-02-11T03:10:53.216Z,26.77
2023-02-11T03:13:22.918Z,33.67
2023-02-11T03:15:54.118Z,29.17
2023-02-11T03:18:25.789Z,32.30
2023-02-11T03:20:54.374Z,27.27
2023-02-11T03:23:26.520Z,28.67
2023-02-11T03:26:00.124Z,29.00
2023-02-11T03:28:35.591Z,30.47
2023-02-11T03:31:15.124Z,28.40
2023-02-11T03:34:08.722Z,31.30
2023-02-11T03:36:42.948Z,38.60
2023-02-11T03:39:11.402Z,32.30
2023-02-11T03:41:39.982Z,29.13
2023-02-11T03:44:08.580Z,28.97
2023-02-11T03:46:39.203Z,33.33
2023-02-11T03:49:11.954Z,33.10
2023-02-11T03:51:39.310Z,32.00
2023-02-11T03:54:10.549Z,34.03
2023-02-11T03:56:43.552Z,33.73
2023-02-11T03:59:10.195Z,32.20
2023-02-11T04:01:37.049Z,34.30
2023-02-11T04:04:03.889Z,34.10
2023-02-11T04:06:30.539Z,31.57
2023-02-11T04:08:57.314Z,33.00
2023-02-11T04:11:23.968Z,35.53
2023-02-11T04:13:50.650Z,36.80
2023-02-11T04:16:17.326Z,36.80
2023-02-11T04:18:43.977Z,26.17
2023-02-11T04:21:10.832Z,30.13
2023-02-11T04:23:37.580Z,32.37
2023-02-11T04:26:04.639Z,39.13
2023-02-11T04:28:31.499Z,31.87
2023-02-11T04:30:58.403Z,38.00
2023-02-11T04:33:25.242Z,35.87
2023-02-11T04:35:52.230Z,31.67
2023-02-11T04:38:19.149Z,33.47
2023-02-11T04:40:45.845Z,36.77
2023-02-11T04:43:12.576Z,30.50
2023-02-11T04:45:39.321Z,43.57
2023-02-11T04:48:06.117Z,44.07
2023-02-11T04:50:32.821Z,33.03
2023-02-11T04:52:59.471Z,38.33
2023-02-11T04:55:26.181Z,39.40
2023-02-11T04:58:00.146Z,40.40
2023-02-11T05:00:26.761Z,41.67
2023-02-11T05:02:53.414Z,47.87
2023-02-11T05:05:20.068Z,45.57
2023-02-11T05:07:46.781Z,38.30
2023-02-11T05:10:13.455Z,40.33
2023-02-11T05:12:40.116Z,42.97
2023-02-11T05:15:07.048Z,53.70
2023-02-11T05:17:33.699Z,48.13
2023-02-11T05:20:01.104Z,43.83
2023-02-11T05:22:27.758Z,53.50
2023-02-11T05:24:54.390Z,51.33
2023-02-11T05:27:21.063Z,50.40
2023-02-11T05:29:47.779Z,42.67
2023-02-11T05:32:14.477Z,46.13
2023-02-11T05:34:41.133Z,51.53
2023-02-11T05:37:08.035Z,54.20
2023-02-11T05:39:34.825Z,59.60
2023-02-11T05:42:01.540Z,60.50
2023-02-11T05:44:28.218Z,56.30
2023-02-11T05:46:54.989Z,49.83
2023-02-11T05:49:21.828Z,55.13
2023-02-11T05:51:48.645Z,61.90
2023-02-11T05:54:15.327Z,51.13
2023-02-11T05:56:44.651Z,55.10
2023-02-11T05:59:14.088Z,59.77
2023-02-11T06:01:41.064Z,62.33
2023-02-11T06:04:07.782Z,56.17
2023-02-11T06:06:34.436Z,60.93
2023-02-11T06:09:01.157Z,58.90
2023-02-11T06:11:27.799Z,64.07
2023-02-11T06:13:54.435Z,64.07
2023-02-11T06:16:21.309Z,55.13
2023-02-11T06:18:48.010Z,64.63
2023-02-11T06:21:14.642Z,54.57
2023-02-11T06:23:41.360Z,66.90
2023-02-11T06:26:15.691Z,55.00
2023-02-11T06:28:42.375Z,62.23
2023-02-11T06:31:09.805Z,64.90
2023-02-11T06:33:36.779Z,58.03
2023-02-11T06:36:04.474Z,58.20
2023-02-11T06:38:31.179Z,63.20
2023-02-11T06:40:57.839Z,64.43
2023-02-11T06:43:24.508Z,58.27
2023-02-11T06:45:55.435Z,64.77
2023-02-11T06:48:23.227Z,69.10
2023-02-11T06:50:49.849Z,56.87
2023-02-11T06:53:16.534Z,66.40
2023-02-11T06:55:43.184Z,58.60
2023-02-11T06:58:09.853Z,61.33
2023-02-11T07:00:37.259Z,64.27
2023-02-11T07:03:04.131Z,64.03
2023-02-11T07:05:30.883Z,63.20
2023-02-11T07:07:57.595Z,57.57
2023-02-11T07:10:24.280Z,63.50
2023-02-11T07:12:51.000Z,66.43
2023-02-11T07:15:17.771Z,55.63
2023-02-11T07:17:44.403Z,66.60
2023-02-11T07:20:12.507Z,69.10
2023-02-11T07:22:39.221Z,61.43
2023-02-11T07:25:06.230Z,69.23
2023-02-11T07:27:33.134Z,62.90
2023-02-11T07:29:59.795Z,62.17
2023-02-11T07:32:26.446Z,62.87
2023-02-11T07:34:53.195Z,59.97
2023-02-11T07:37:19.943Z,68.10
2023-02-11T07:39:46.579Z,60.93
2023-02-11T07:42:13.234Z,61.23
2023-02-11T07:44:39.875Z,62.70
2023-02-11T07:47:06.592Z,58.87
2023-02-11T07:49:33.280Z,60.33
2023-02-11T07:51:59.920Z,58.13
2023-02-11T07:54:26.594Z,65.93
2023-02-11T07:56:53.269Z,71.30
2023-02-11T07:59:20.039Z,61.07
2023-02-11T08:01:46.827Z,61.50
2023-02-11T08:04:13.854Z,59.13
2023-02-11T08:06:42.699Z,71.30
2023-02-11T08:09:14.096Z,63.33
2023-02-11T08:11:40.960Z,67.10
2023-02-11T08:14:08.614Z,68.93
2023-02-11T08:16:37.056Z,60.67
2023-02-11T08:19:06.823Z,59.30
2023-02-11T08:21:33.881Z,66.03
2023-02-11T08:24:03.503Z,63.80
2023-02-11T08:26:32.760Z,56.90
2023-02-11T08:28:59.613Z,58.90
2023-02-11T08:31:29.439Z,56.87
2023-02-11T08:33:59.795Z,60.10
2023-02-11T08:36:37.817Z,61.93
2023-02-11T08:39:18.524Z,64.03
2023-02-11T08:41:51.780Z,56.80
2023-02-11T08:44:19.859Z,56.83
2023-02-11T08:46:47.017Z,63.40
2023-02-11T08:49:14.842Z,57.17
2023-02-11T08:51:41.751Z,61.83
2023-02-11T08:54:09.860Z,54.97
2023-02-11T08:56:37.668Z,57.00
2023-02-11T08:59:05.069Z,55.10
2023-02-11T09:01:32.565Z,56.93
2023-02-11T09:04:01.051Z,53.03
2023-02-11T09:06:28.316Z,70.40
2023-02-11T09:08:56.639Z,59.10
2023-02-11T09:11:33.410Z,55.80
2023-02-11T09:14:01.431Z,57.60
2023-02-11T09:16:32.882Z,55.40
2023-02-11T09:19:01.602Z,60.57
2023-02-11T09:21:28.837Z,51.60
2023-02-11T09:23:56.494Z,54.17
2023-02-11T09:26:27.847Z,50.60
2023-02-11T09:28:54.718Z,51.07
2023-02-11T09:31:25.361Z,51.00
2023-02-11T09:33:56.045Z,47.07
2023-02-11T09:36:28.954Z,53.33
2023-02-11T09:38:57.662Z,46.60
2023-02-11T09:41:24.282Z,53.70
2023-02-11T09:43:58.286Z,44.10
2023-02-11T09:46:27.606Z,44.27
2023-02-11T09:48:55.940Z,43.83
2023-02-11T09:51:34.959Z,43.23
2023-02-11T09:54:07.579Z,42.57
2023-02-11T09:56:34.358Z,45.40
2023-02-11T09:59:01.052Z,43.40
2023-02-11T10:01:39.888Z,43.73
2023-02-11T10:04:57.476Z,40.83
2023-02-11T10:07:36.274Z,39.60
2023-02-11T10:10:38.727Z,41.33
2023-02-11T10:13:42.740Z,41.00
2023-02-11T10:16:39.977Z,34.80
2023-02-11T10:19:41.931Z,38.43
2023-02-11T10:22:41.256Z,36.83
2023-02-11T10:25:33.578Z,31.70
2023-02-11T10:28:10.068Z,31.43
2023-02-11T10:30:55.263Z,33.13
2023-02-11T10:33:32.480Z,32.17
2023-02-11T10:35:59.610Z,28.80
2023-02-11T10:38:27.733Z,33.00
2023-02-11T10:40:54.466Z,35.63
2023-02-11T10:43:26.190Z,29.10
2023-02-11T10:45:57.171Z,29.47
2023-02-11T10:48:38.678Z,29.47
2023-02-11T10:51:15.050Z,26.53
2023-02-11T10:53:42.274Z,38.80
2023-02-11T10:56:19.808Z,27.83
2023-02-11T10:58:59.233Z,29.93
2023-02-11T11:01:44.121Z,27.57
2023-02-11T11:04:35.172Z,24.93
2023-02-11T11:07:20.713Z,31.23
2023-02-11T11:10:03.105Z,25.27
2023-02-11T11:12:44.913Z,25.07
2023-02-11T11:15:11.606Z,25.07
2023-02-11T11:17:38.640Z,28.67
2023-02-11T11:20:27.245Z,24.37
2023-02-11T11:23:19.136Z,24.40
2023-02-11T11:26:18.720Z,25.23
2023-02-11T11:28:58.933Z,21.13
2023-02-11T11:31:45.369Z,24.13
2023-02-11T11:34:34.314Z,24.57
2023-02-11T11:37:30.215Z,27.47
2023-02-11T11:40:22.431Z,21.47
2023-02-11T11:43:05.924Z,28.07
2023-02-11T11:45:32.782Z,24.37
2023-02-11T11:48:37.656Z,23.90
2023-02-11T11:51:06.988Z,33.10
2023-02-11T11:53:48.517Z,23.53
2023-02-11T11:56:17.108Z,22.27
2023-02-11T11:58:44.121Z,19.37
2023-02-11T12:01:33.889Z,21.90
2023-02-11T12:04:36.770Z,27.03
2023-02-11T12:07:24.782Z,21.20
2023-02-11T12:10:27.837Z,23.70
2023-02-11T12:13:03.595Z,23.93
2023-02-11T12:15:44.424Z,24.13
2023-02-11T12:18:53.511Z,20.20
2023-02-11T12:21:41.605Z,22.20
2023-02-11T12:24:11.074Z,18.50
2023-02-11T12:26:56.264Z,22.07
2023-02-11T12:29:30.708Z,21.80
2023-02-11T12:32:15.015Z,19.23
2023-02-11T12:35:10.909Z,21.83
2023-02-11T12:37:45.729Z,20.80
2023-02-11T12:40:23.828Z,21.47
2023-02-11T12:43:15.200Z,23.93
2023-02-11T12:46:17.756Z,17.73
2023-02-11T12:49:11.614Z,15.67
2023-02-11T12:52:06.399Z,17.90
2023-02-11T12:54:36.654Z,19.23
2023-02-11T12:57:31.149Z,14.87
2023-02-11T13:00:27.262Z,16.03
2023-02-11T13:03:25.594Z,19.67
2023-02-11T13:05:55.158Z,13.23
2023-02-11T13:08:47.232Z,17.60
2023-02-11T13:11:22.629Z,16.40
2023-02-11T13:14:06.156Z,13.50
2023-02-11T13:16:46.133Z,16.33
2023-02-11T13:19:12.897Z,12.80
2023-02-11T13:21:58.270Z,15.67
2023-02-11T13:24:44.576Z,13.83
2023-02-11T13:27:23.693Z,13.33
2023-02-11T13:30:04.378Z,16.63
2023-02-11T13:32:56.364Z,13.17
2023-02-11T13:35:35.691Z,11.03
2023-02-11T13:38:05.519Z,15.83
2023-02-11T13:40:36.632Z,17.30
2023-02-11T13:43:06.492Z,14.50
2023-02-11T13:45:45.180Z,10.60
2023-02-11T13:48:31.017Z,14.17
2023-02-11T13:51:07.609Z,13.73
2023-02-11T13:53:55.652Z,12.07
2023-02-11T13:56:37.723Z,12.20
2023-02-11T13:59:30.633Z,9.97
2023-02-11T14:02:19.066Z,10.30
2023-02-11T14:05:24.214Z,10.27
2023-02-11T14:08:28.584Z,11.07
2023-02-11T14:11:14.686Z,11.60
2023-02-11T14:13:47.583Z,12.60
2023-02-11T14:16:31.687Z,9.13
2023-02-11T14:19:04.669Z,13.03
2023-02-11T14:21:38.890Z,11.73
2023-02-11T14:24:07.011Z,12.77
2023-02-11T14:26:59.193Z,12.20
2023-02-11T14:29:31.720Z,10.97
2023-02-11T14:32:05.907Z,10.60
2023-02-11T14:34:53.236Z,13.30
2023-02-11T14:37:50.447Z,11.43
2023-02-11T14:40:46.239Z,9.67
2023-02-11T14:43:19.363Z,9.70
2023-02-11T14:45:56.471Z,13.10
2023-02-11T14:48:30.351Z,12.13
2023-02-11T14:51:19.511Z,9.73
2023-02-11T14:54:24.870Z,11.50
2023-02-11T14:57:11.479Z,12.63
2023-02-11T14:59:38.494Z,8.50
2023-02-11T15:02:21.688Z,9.70
2023-02-11T15:04:48.461Z,10.63
2023-02-11T15:07:15.987Z,13.40
2023-02-11T15:09:50.680Z,11.87
2023-02-11T15:12:26.389Z,12.33
2023-02-11T15:14:59.060Z,8.20
2023-02-11T15:17:31.917Z,13.07
2023-02-11T15:20:01.777Z,13.03
2023-02-11T15:22:33.007Z,9.27
2023-02-11T15:25:07.485Z,9.97
2023-02-11T15:27:50.180Z,11.17
2023-02-11T15:30:22.898Z,11.30
2023-02-11T15:32:51.340Z,11.83
2023-02-11T15:35:19.104Z,11.13
2023-02-11T15:37:46.011Z,10.40
2023-02-11T15:40:21.133Z,8.97
2023-02-11T15:43:06.085Z,8.50
2023-02-11T15:45:43.079Z,10.43
2023-02-11T15:48:36.058Z,10.17
2023-02-11T15:51:28.686Z,16.47
2023-02-11T15:54:01.748Z,12.27
2023-02-11T15:56:30.480Z,11.73
2023-02-11T15:59:00.339Z,7.20
2023-02-11T16:01:34.019Z,9.97
2023-02-11T16:04:02.222Z,11.07
2023-02-11T16:06:40.056Z,11.30
2023-02-11T16:09:34.296Z,13.40
2023-02-11T16:12:04.548Z,9.70
2023-02-11T16:14:34.549Z,10.40
2023-02-11T16:17:09.594Z,10.40
2023-02-11T16:19:42.646Z,13.53
2023-02-11T16:22:11.999Z,12.30
2023-02-11T16:24:39.424Z,10.57
2023-02-11T16:27:40.061Z,6.90
2023-02-11T16:30:22.399Z,9.53
2023-02-11T16:32:49.122Z,10.67
2023-02-11T16:35:15.753Z,11.97
2023-02-11T16:37:42.385Z,9.37
2023-02-11T16:40:10.056Z,8.17
2023-02-11T16:42:36.690Z,12.70
2023-02-11T16:45:03.840Z,7.80
2023-02-11T16:47:33.466Z,12.67
2023-02-11T16:50:02.121Z,7.10
2023-02-11T16:52:31.572Z,10.87
2023-02-11T16:54:59.619Z,10.10
2023-02-11T16:57:28.885Z,12.67
2023-02-11T16:59:57.344Z,10.73
2023-02-11T17:02:30.528Z,10.97
2023-02-11T17:05:00.877Z,10.67
2023-02-11T17:07:27.973Z,13.97
2023-02-11T17:09:54.851Z,15.37
2023-02-11T17:12:21.953Z,20.57
2023-02-11T17:14:48.598Z,24.60
2023-02-11T17:17:16.008Z,16.97
2023-02-11T17:19:42.692Z,17.60
2023-02-11T17:22:11.692Z,15.40
2023-02-11T17:24:38.438Z,15.47
2023-02-11T17:27:05.128Z,17.37
2023-02-11T17:29:31.795Z,15.63
2023-02-11T17:31:58.565Z,18.47
2023-02-11T17:34:25.294Z,18.93
2023-02-11T17:36:51.995Z,19.87
2023-02-11T17:39:20.956Z,16.83
2023-02-11T17:41:47.659Z,19.30
2023-02-11T17:44:15.482Z,13.47
2023-02-11T17:46:42.294Z,21.77
2023-02-11T17:49:11.054Z,21.80
2023-02-11T17:51:39.183Z,16.70
2023-02-11T17:54:11.994Z,16.17
2023-02-11T17:56:40.758Z,19.10
2023-02-11T17:59:08.625Z,19.67
2023-02-11T18:01:37.025Z,17.33
2023-02-11T18:04:04.664Z,19.90
2023-02-11T18:06:33.678Z,18.07
2023-02-11T18:09:02.321Z,17.17
2023-02-11T18:11:30.524Z,17.07
2023-02-11T18:13:59.729Z,16.90
2023-02-11T18:16:28.940Z,20.63
2023-02-11T18:18:57.458Z,16.20
2023-02-11T18:21:25.283Z,17.20
2023-02-11T18:23:52.437Z,18.30
2023-02-11T18:26:21.313Z,20.47
2023-02-11T18:28:48.437Z,20.23
2023-02-11T18:31:15.549Z,20.43
2023-02-11T18:33:43.041Z,22.00
2023-02-11T18:36:12.506Z,20.40
2023-02-11T18:38:40.332Z,21.17
2023-02-11T18:41:07.580Z,21.97
2023-02-11T18:43:35.323Z,19.47
2023-02-11T18:46:06.631Z,21.13
2023-02-11T18:48:34.427Z,17.80
2023-02-11T18:51:01.208Z,22.67
2023-02-11T18:53:28.086Z,22.00
2023-02-11T18:55:55.322Z,22.10
2023-02-11T18:58:22.272Z,33.93
2023-02-11T19:00:49.994Z,25.03
2023-02-11T19:03:17.083Z,18.20
2023-02-11T19:05:46.354Z,23.20
2023-02-11T19:08:13.590Z,22.40
2023-02-11T19:10:45.281Z,24.73
2023-02-11T19:13:12.808Z,19.83
2023-02-11T19:15:43.162Z,20.13
2023-02-11T19:18:10.629Z,20.97
2023-02-11T19:20:42.207Z,23.23
2023-02-11T19:23:09.078Z,19.47
2023-02-11T19:25:36.095Z,20.47
2023-02-11T19:28:03.472Z,19.60
2023-02-11T19:30:30.183Z,20.93
2023-02-11T19:32:57.676Z,23.83
2023-02-11T19:35:25.049Z,24.03
2023-02-11T19:37:51.771Z,29.63
2023-02-11T19:40:21.217Z,25.30
2023-02-11T19:42:47.991Z,24.43
2023-02-11T19:45:14.743Z,23.70
2023-02-11T19:47:41.450Z,23.27
2023-02-11T19:50:09.071Z,21.67
2023-02-11T19:52:38.308Z,21.03
2023-02-11T19:55:05.375Z,19.57
2023-02-11T19:57:32.037Z,21.60
2023-02-11T19:59:58.652Z,24.93
2023-02-11T20:02:25.359Z,23.97
2023-02-11T20:04:52.027Z,22.13
2023-02-11T20:07:18.707Z,20.07
2023-02-11T20:09:45.404Z,24.93
2023-02-11T20:12:12.125Z,20.07
2023-02-11T20:14:38.861Z,25.20
2023-02-11T20:17:05.530Z,26.63
2023-02-11T20:19:32.295Z,23.10
2023-02-11T20:21:59.033Z,21.77
2023-02-11T20:24:26.041Z,29.13
2023-02-11T20:26:56.085Z,20.77
2023-02-11T20:29:23.673Z,23.07
2023-02-11T20:31:50.807Z,23.67
2023-02-11T20:34:18.305Z,22.70
2023-02-11T20:36:51.806Z,24.07
2023-02-11T20:39:21.709Z,26.17
2023-02-11T20:41:49.175Z,23.20
2023-02-11T20:44:16.389Z,26.87
2023-02-11T20:46:46.453Z,26.60
2023-02-11T20:49:15.800Z,28.37
2023-02-11T20:51:43.352Z,38.10
2023-02-11T20:54:15.331Z,27.53
2023-02-11T20:56:42.193Z,31.17
2023-02-11T20:59:09.519Z,28.60
2023-02-11T21:01:40.699Z,28.47
2023-02-11T21:04:19.569Z,28.23
2023-02-11T21:06:50.745Z,30.43
2023-02-11T21:09:21.149Z,28.83
2023-02-11T21:11:48.868Z,32.97
2023-02-11T21:14:15.728Z,35.53
2023-02-11T21:16:42.610Z,30.87
2023-02-11T21:19:09.283Z,31.67
2023-02-11T21:21:37.736Z,31.10
2023-02-11T21:24:05.770Z,29.43
2023-02-11T21:26:33.403Z,31.00
2023-02-11T21:29:00.082Z,32.53
2023-02-11T21:31:29.848Z,29.43
2023-02-11T21:33:59.399Z,30.03
2023-02-11T21:36:27.521Z,31.27
2023-02-11T21:38:54.461Z,32.87
2023-02-11T21:41:22.517Z,34.47
2023-02-11T21:43:49.878Z,28.97
2023-02-11T21:46:17.642Z,31.00
2023-02-11T21:48:44.417Z,34.20
2023-02-11T21:51:17.366Z,26.83
2023-02-11T21:53:44.249Z,26.50
2023-02-11T21:56:19.807Z,34.33
2023-02-11T21:58:46.921Z,31.73
2023-02-11T22:01:18.874Z,30.67
2023-02-11T22:03:46.282Z,38.80
2023-02-11T22:06:15.508Z,29.93
2023-02-11T22:08:42.507Z,32.80
2023-02-11T22:11:12.132Z,32.00
2023-02-11T22:13:39.577Z,30.10
2023-02-11T22:16:10.106Z,27.37
2023-02-11T22:18:37.160Z,31.00
2023-02-11T22:21:07.743Z,32.13
2023-02-11T22:23:34.768Z,33.73
2023-02-11T22:26:05.796Z,34.57
2023-02-11T22:28:32.736Z,32.07
2023-02-11T22:31:00.126Z,32.17
2023-02-11T22:33:27.965Z,34.90
2023-02-11T22:35:59.266Z,30.60
2023-02-11T22:38:26.719Z,30.63
2023-02-11T22:40:53.720Z,32.73
2023-02-11T22:43:20.562Z,31.93
2023-02-11T22:45:47.246Z,35.50
2023-02-11T22:48:14.030Z,30.60
2023-02-11T22:50:40.903Z,30.60
2023-02-11T22:53:07.549Z,33.50
2023-02-11T22:55:38.683Z,31.73
2023-02-11T22:58:06.226Z,29.00
2023-02-11T23:00:37.937Z,31.63
2023-02-11T23:03:05.306Z,31.77
2023-02-11T23:05:36.749Z,32.40
2023-02-11T23:08:03.508Z,32.70
2023-02-11T23:10:30.200Z,27.80
2023-02-11T23:12:56.887Z,30.70
2023-02-11T23:15:23.512Z,29.07
2023-02-11T23:17:50.235Z,34.03
2023-02-11T23:20:17.064Z,31.33
2023-02-11T23:22:43.685Z,29.77
2023-02-11T23:25:10.608Z,33.20
2023-02-11T23:27:37.380Z,31.70
2023-02-11T23:30:04.693Z,33.20
2023-02-11T23:32:31.408Z,31.07
2023-02-11T23:34:58.220Z,27.30
2023-02-11T23:37:24.888Z,28.10
2023-02-11T23:39:51.525Z,30.87
2023-02-11T23:42:18.274Z,33.73
2023-02-11T23:44:44.910Z,27.10
2023-02-11T23:47:11.688Z,31.83
2023-02-11T23:49:38.344Z,30.67
2023-02-11T23:52:05.017Z,31.07
2023-02-11T23:54:31.666Z,30.70
2023-02-11T23:56:58.454Z,30.83
2023-02-11T23:59:25.164Z,29.83
